Aérodrome :
LOGIN :

S'inscrire | Disclaimer

   EN    FR    IT 

 










Légende :    VFR   VFR Marginal   IFR   IFR Intensif   IFR Très Intensif
Visi : 
Plafond : 
>= 8 km
>= 3000ft
5 à 8 km
1000 à 3000 ft
1500m à 5 km
500 à 1000 ft
800 à 1500m
200 à 500 ft
< 800m
< 200 ft
Symboles :   Orages  Brouillard  Fortes neiges  Fortes précipitations  Vent > 20 kt
SIGMETs :   Divers  Orages  Givrage  Turbulence  Onde Orograph.  Cendres Volcan.







- Altitude de l'aérodrome : 124 ft
- Code IATA : AVN
- Voir les cartes d'approche


LFMV - Avignon Caumont

DERNIER METAR :
  • 221600Z AUTO 14007KT 9999 FEW037 OVC045 16/08 Q1017 NOSIG

METARs EXPIRÉS :
  • 221530Z AUTO 14006KT 9999 SCT037 OVC045 16/09 Q1017 NOSIG
  • 221500Z AUTO 14007KT 9999 BKN046 16/09 Q1017 NOSIG
  • 221430Z AUTO 14007KT 9999 FEW033 BKN048 16/09 Q1017 NOSIG
  • 221400Z AUTO 16007KT 9999 FEW031 OVC047 16/09 Q1017 NOSIG
  • 221330Z AUTO 17007KT 9999 BKN029 BKN034 OVC043 17/09 Q1017 NOSIG

TAF TAF LFMV
Valide du 22 à 15h jusqu'au 23 à 15h UTC


221400Z 2215/2315 17012KT 9999 BKN047
BECMG 2217/2219 12008KT BKN022
BECMG 2303/2306 BKN038
BECMG 2311/2314 18010KT NSC
ATIS : +33 4 90 84 32 84
Pas de NOTAMs connus pour ce terrain.



MET'MAP, la Météo Aéronautique d'un coup d'oeil ! - Copyright ORBIFLY Décembre 2007 - Disclaimer

ORBIFLY MET'MAP TEAM :

Programmation & Développement : Alexandra Zaïnal
Conception & Développement : Baudouin d'Aumeries
Co-Programmation & Développement : Marc-Olivier Méhu
Soutien technique & logistique : Manuel Goepfert

Contact : metmap@orbifly.com




SOURCES & CREDITS :

   NOAA